Time;durP1;ratioP1;P1;durP2;ratioP2;P2;SDS_P1;SDS_P2;PMS_P1;PMS_P2;Temp;Humidity;BMP_temperature;BMP_pressure;BME280_temperature;BME280_humidity;BME280_pressure;Samples;Min_cycle;Max_cycle;Signal;HPM_P1;HPM_P2
2021/12/28 00:01:06;;;;;;;11.18;10.10;;;;;;;;;;4913696;29;20098;-68
2021/12/28 00:03:32;;;;;;;12.52;11.32;;;;;;;;;;4921872;29;20549;-68
2021/12/28 00:06:00;;;;;;;12.38;11.25;;;;;;;;;;4912423;29;20036;-68
2021/12/28 00:08:26;;;;;;;10.88;10.07;;;;;;;;;;4924280;29;20571;-69
2021/12/28 00:10:52;;;;;;;11.15;10.13;;;;;;;;;;4920941;29;20103;-69
2021/12/28 00:13:18;;;;;;;10.68;9.88;;;;;;;;;;4930525;29;20057;-68
2021/12/28 00:18:24;;;;;;;10.32;9.52;;;;;;;;;;4895724;29;20073;-68
2021/12/28 00:20:53;;;;;;;10.27;9.30;;;;;;;;;;4916190;29;20032;-68
2021/12/28 00:23:22;;;;;;;10.25;9.50;;;;;;;;;;4917816;29;20032;-68
2021/12/28 00:25:51;;;;;;;9.93;9.23;;;;;;;;;;4916044;29;20036;-68
2021/12/28 00:28:17;;;;;;;10.20;9.38;;;;;;;;;;4909540;29;20601;-68
2021/12/28 00:30:43;;;;;;;10.00;9.20;;;;;;;;;;4914615;29;20063;-67
2021/12/28 00:33:09;;;;;;;10.48;9.68;;;;;;;;;;4926571;29;20043;-69
2021/12/28 00:35:38;;;;;;;9.73;9.13;;;;;;;;;;4914725;29;20047;-69
2021/12/28 00:38:06;;;;;;;9.88;9.07;;;;;;;;;;4924335;29;20047;-69
2021/12/28 00:40:32;;;;;;;9.73;9.13;;;;;;;;;;4914189;29;20187;-69
2021/12/28 00:42:59;;;;;;;10.25;9.55;;;;;;;;;;4915005;29;20095;-69
2021/12/28 00:45:25;;;;;;;11.60;9.18;;;;;;;;;;4916432;29;20032;-69
2021/12/28 00:47:50;;;;;;;10.45;9.48;;;;;;;;;;4922722;29;20046;-69
2021/12/28 00:50:17;;;;;;;10.10;9.20;;;;;;;;;;4923189;29;20044;-69
2021/12/28 00:52:44;;;;;;;9.95;9.23;;;;;;;;;;4921281;29;20072;-69
2021/12/28 00:55:11;;;;;;;9.85;9.07;;;;;;;;;;4919838;29;20047;-69
2021/12/28 00:57:36;;;;;;;9.15;8.55;;;;;;;;;;4942909;29;20043;-69
2021/12/28 01:00:08;;;;;;;10.45;9.52;;;;;;;;;;4917494;29;20052;-69
2021/12/28 01:02:33;;;;;;;10.18;9.23;;;;;;;;;;4920260;29;20036;-69
2021/12/28 01:04:59;;;;;;;10.15;9.35;;;;;;;;;;4917378;29;20040;-69
2021/12/28 01:07:25;;;;;;;9.90;9.10;;;;;;;;;;4915434;29;20393;-68
2021/12/28 01:09:51;;;;;;;10.70;9.00;;;;;;;;;;4920086;29;20411;-68
2021/12/28 01:12:16;;;;;;;10.05;9.15;;;;;;;;;;4929910;29;20506;-69
2021/12/28 01:14:42;;;;;;;10.27;9.43;;;;;;;;;;4915489;29;20032;-69
2021/12/28 01:17:08;;;;;;;10.02;9.23;;;;;;;;;;4938002;29;20135;-69
2021/12/28 01:19:34;;;;;;;11.63;9.52;;;;;;;;;;4943879;29;20063;-69
2021/12/28 01:22:03;;;;;;;10.13;9.10;;;;;;;;;;4927515;29;20063;-68
2021/12/28 01:24:30;;;;;;;10.52;9.32;;;;;;;;;;4921375;29;20111;-69
2021/12/28 01:26:56;;;;;;;12.05;9.40;;;;;;;;;;4922829;29;20055;-69
2021/12/28 01:29:22;;;;;;;13.82;9.43;;;;;;;;;;4919576;29;20048;-69
2021/12/28 01:31:48;;;;;;;10.35;9.45;;;;;;;;;;4912965;29;20036;-69
2021/12/28 01:34:13;;;;;;;10.30;9.50;;;;;;;;;;4918738;29;20099;-69
2021/12/28 01:36:39;;;;;;;10.48;9.60;;;;;;;;;;4917318;29;20039;-69
2021/12/28 01:39:06;;;;;;;11.40;10.00;;;;;;;;;;4920802;29;20066;-69
2021/12/28 01:41:33;;;;;;;10.93;10.02;;;;;;;;;;4914710;29;20047;-69
2021/12/28 01:44:04;;;;;;;10.32;9.52;;;;;;;;;;4914024;29;20032;-69
2021/12/28 01:46:31;;;;;;;11.13;10.07;;;;;;;;;;4920474;29;20042;-69
2021/12/28 01:48:57;;;;;;;11.15;10.05;;;;;;;;;;4921165;29;20488;-69
2021/12/28 01:51:24;;;;;;;10.98;9.88;;;;;;;;;;4913797;29;20043;-69
2021/12/28 01:53:53;;;;;;;11.10;10.05;;;;;;;;;;4913882;29;20051;-69
2021/12/28 01:56:23;;;;;;;;;;;;;;;;;;4924037;29;20032;-69
2021/12/28 01:58:50;;;;;;;10.65;9.70;;;;;;;;;;4922674;29;19973;-69
2021/12/28 02:01:16;;;;;;;11.15;9.98;;;;;;;;;;4916511;29;20111;-68
2021/12/28 02:03:44;;;;;;;10.70;9.60;;;;;;;;;;4913375;29;20044;-69
2021/12/28 02:06:11;;;;;;;11.20;10.15;;;;;;;;;;4904343;29;20044;-69
2021/12/28 02:08:38;;;;;;;13.27;10.32;;;;;;;;;;4914729;29;20032;-69
2021/12/28 02:11:04;;;;;;;11.52;10.55;;;;;;;;;;4914357;29;20067;-69
2021/12/28 02:13:30;;;;;;;12.90;9.95;;;;;;;;;;4911465;29;20094;-69
2021/12/28 02:15:57;;;;;;;12.98;10.02;;;;;;;;;;4919083;29;20051;-69
2021/12/28 02:18:26;;;;;;;13.15;10.27;;;;;;;;;;4916538;29;20040;-69
2021/12/28 02:20:54;;;;;;;13.93;10.77;;;;;;;;;;4916629;29;20040;-68
2021/12/28 02:23:20;;;;;;;12.02;10.18;;;;;;;;;;4912798;29;20233;-69
2021/12/28 02:25:46;;;;;;;10.68;9.75;;;;;;;;;;4921339;29;20555;-69
2021/12/28 02:28:13;;;;;;;13.38;9.93;;;;;;;;;;4920298;29;20039;-68
2021/12/28 02:30:41;;;;;;;13.10;9.55;;;;;;;;;;4912001;29;20119;-69
2021/12/28 02:33:07;;;;;;;12.30;9.38;;;;;;;;;;4921258;29;20039;-69
2021/12/28 02:35:34;;;;;;;15.27;9.75;;;;;;;;;;4923547;29;20063;-69
2021/12/28 02:38:00;;;;;;;10.50;9.43;;;;;;;;;;4920677;29;20044;-69
2021/12/28 02:40:29;;;;;;;10.95;9.18;;;;;;;;;;4919179;29;20044;-69
2021/12/28 02:42:58;;;;;;;15.27;9.95;;;;;;;;;;4924970;29;20040;-69
2021/12/28 02:45:33;;;;;;;10.93;9.80;;;;;;;;;;4916213;29;20132;-69
2021/12/28 02:47:58;;;;;;;15.57;10.27;;;;;;;;;;4920925;29;20062;-69
2021/12/28 02:50:31;;;;;;;14.65;10.20;;;;;;;;;;4926317;29;20120;-69
2021/12/28 02:52:58;;;;;;;18.33;10.15;;;;;;;;;;4920822;29;20040;-69
2021/12/28 02:55:28;;;;;;;11.25;9.95;;;;;;;;;;4908280;29;20143;-69
2021/12/28 02:57:57;;;;;;;11.95;10.02;;;;;;;;;;4925070;29;20036;-69
2021/12/28 03:00:32;;;;;;;10.05;9.23;;;;;;;;;;4925066;29;20103;-69
2021/12/28 03:02:58;;;;;;;11.20;9.38;;;;;;;;;;4916007;29;20036;-69
2021/12/28 03:05:24;;;;;;;11.63;9.60;;;;;;;;;;4919080;29;20058;-69
2021/12/28 03:07:50;;;;;;;14.07;10.10;;;;;;;;;;4918293;29;20551;-69
2021/12/28 03:10:16;;;;;;;14.57;9.98;;;;;;;;;;4915134;29;20128;-69
2021/12/28 03:12:42;;;;;;;10.48;9.55;;;;;;;;;;4924783;29;20387;-69
2021/12/28 03:15:08;;;;;;;15.23;9.73;;;;;;;;;;4923093;29;20039;-68
2021/12/28 03:17:33;;;;;;;11.52;10.45;;;;;;;;;;4920205;29;20634;-69
2021/12/28 03:19:59;;;;;;;11.40;10.15;;;;;;;;;;4918413;29;20036;-69
2021/12/28 03:22:25;;;;;;;15.30;10.90;;;;;;;;;;4920711;29;20480;-69
2021/12/28 03:24:50;;;;;;;13.77;9.82;;;;;;;;;;4915211;29;20040;-69
2021/12/28 03:27:16;;;;;;;12.63;9.82;;;;;;;;;;4903408;29;20040;-69
2021/12/28 03:29:41;;;;;;;11.43;9.73;;;;;;;;;;4905878;29;20040;-69
2021/12/28 03:32:07;;;;;;;10.27;9.32;;;;;;;;;;4911486;29;20048;-70
2021/12/28 03:34:33;;;;;;;16.85;10.20;;;;;;;;;;4914404;29;20043;-69
2021/12/28 03:36:59;;;;;;;10.60;9.43;;;;;;;;;;4918517;29;20107;-69
2021/12/28 03:39:24;;;;;;;11.23;9.82;;;;;;;;;;4912883;29;20418;-69
2021/12/28 03:41:50;;;;;;;10.90;9.80;;;;;;;;;;4910967;29;20040;-69
2021/12/28 03:44:15;;;;;;;10.15;9.20;;;;;;;;;;4919821;29;20127;-69
2021/12/28 03:46:41;;;;;;;18.42;9.63;;;;;;;;;;4921192;29;20068;-69
2021/12/28 03:49:07;;;;;;;9.80;8.80;;;;;;;;;;4912420;29;20067;-69
2021/12/28 03:51:32;;;;;;;10.25;9.35;;;;;;;;;;4910343;29;20032;-69
2021/12/28 03:53:58;;;;;;;10.15;9.15;;;;;;;;;;4924276;29;20074;-69
2021/12/28 03:56:25;;;;;;;14.32;10.00;;;;;;;;;;4911968;29;20039;-70
2021/12/28 03:58:51;;;;;;;11.00;9.90;;;;;;;;;;4912893;29;20044;-69
2021/12/28 04:01:21;;;;;;;10.60;9.60;;;;;;;;;;4914658;29;20087;-69
2021/12/28 04:03:47;;;;;;;10.93;9.82;;;;;;;;;;4913984;29;20042;-70
2021/12/28 04:06:13;;;;;;;10.18;9.25;;;;;;;;;;4911448;29;20040;-69
2021/12/28 04:08:42;;;;;;;11.27;9.38;;;;;;;;;;4915170;29;20132;-69
2021/12/28 04:13:48;;;;;;;11.45;9.63;;;;;;;;;;4917280;29;20047;-70
2021/12/28 04:16:15;;;;;;;11.10;9.98;;;;;;;;;;4925341;29;20067;-70
2021/12/28 04:18:41;;;;;;;10.68;9.82;;;;;;;;;;4916213;29;20119;-70
2021/12/28 04:21:08;;;;;;;11.20;10.10;;;;;;;;;;4919695;29;20047;-70
2021/12/28 04:23:34;;;;;;;11.07;9.95;;;;;;;;;;4916688;29;20035;-70
2021/12/28 04:26:00;;;;;;;10.32;9.43;;;;;;;;;;4926743;29;20036;-69
2021/12/28 04:28:26;;;;;;;10.63;9.80;;;;;;;;;;4922508;29;20039;-69
2021/12/28 04:30:52;;;;;;;10.68;9.52;;;;;;;;;;4913254;29;20529;-69
2021/12/28 04:33:17;;;;;;;10.13;9.30;;;;;;;;;;4931721;29;20111;-69
2021/12/28 04:35:43;;;;;;;11.30;9.32;;;;;;;;;;4914688;29;20050;-70
2021/12/28 04:38:09;;;;;;;13.13;9.55;;;;;;;;;;4926486;29;20032;-69
2021/12/28 04:40:41;;;;;;;9.77;8.88;;;;;;;;;;4919620;29;20040;-69
2021/12/28 04:43:08;;;;;;;10.88;9.63;;;;;;;;;;4939245;29;20035;-69
2021/12/28 04:45:38;;;;;;;10.50;9.52;;;;;;;;;;4913639;29;20506;-69
2021/12/28 04:48:06;;;;;;;10.20;9.23;;;;;;;;;;4909162;29;20036;-70
2021/12/28 04:50:37;;;;;;;9.73;9.00;;;;;;;;;;4913889;29;20055;-69
2021/12/28 04:53:09;;;;;;;11.73;9.02;;;;;;;;;;4918802;29;20043;-69
2021/12/28 04:55:37;;;;;;;10.75;9.75;;;;;;;;;;4914493;29;20044;-69
2021/12/28 04:58:04;;;;;;;11.20;10.10;;;;;;;;;;4917631;29;20082;-69
2021/12/28 05:00:29;;;;;;;13.38;9.45;;;;;;;;;;4913678;29;20117;-69
2021/12/28 05:02:56;;;;;;;12.95;10.73;;;;;;;;;;4914798;29;20032;-69
2021/12/28 05:05:21;;;;;;;10.95;9.88;;;;;;;;;;4922429;29;20072;-69
2021/12/28 05:07:47;;;;;;;13.35;9.38;;;;;;;;;;4921496;29;20056;-69
2021/12/28 05:10:13;;;;;;;10.73;9.65;;;;;;;;;;4922718;29;20398;-69
2021/12/28 05:12:39;;;;;;;11.23;10.00;;;;;;;;;;4941125;29;20039;-69
2021/12/28 05:15:06;;;;;;;11.27;10.00;;;;;;;;;;4913235;29;20118;-69
2021/12/28 05:17:33;;;;;;;12.32;10.40;;;;;;;;;;4921817;29;20032;-69
2021/12/28 05:19:59;;;;;;;11.82;10.70;;;;;;;;;;4918983;29;20440;-69
2021/12/28 05:22:24;;;;;;;10.93;10.02;;;;;;;;;;4922973;29;20503;-69
2021/12/28 05:24:50;;;;;;;15.00;9.95;;;;;;;;;;4918860;29;20066;-69
2021/12/28 05:27:16;;;;;;;10.80;10.00;;;;;;;;;;4916016;29;20135;-69
2021/12/28 05:29:42;;;;;;;10.38;9.48;;;;;;;;;;4918947;29;20031;-69
2021/12/28 05:32:08;;;;;;;10.15;9.50;;;;;;;;;;4914471;29;20480;-69
2021/12/28 05:34:34;;;;;;;11.32;10.23;;;;;;;;;;4917464;29;20083;-69
2021/12/28 05:36:59;;;;;;;11.05;9.88;;;;;;;;;;4914827;29;20377;-69
2021/12/28 05:39:25;;;;;;;10.68;9.77;;;;;;;;;;4913330;29;20079;-69
2021/12/28 05:41:50;;;;;;;11.35;10.23;;;;;;;;;;4916187;29;20043;-69
2021/12/28 05:44:17;;;;;;;11.45;10.48;;;;;;;;;;4921045;29;20594;-69
2021/12/28 05:46:45;;;;;;;11.05;10.20;;;;;;;;;;4909941;29;20111;-69
2021/12/28 05:49:11;;;;;;;11.57;10.52;;;;;;;;;;4911740;29;20041;-69
2021/12/28 05:51:36;;;;;;;12.05;10.95;;;;;;;;;;4913887;29;20552;-69
2021/12/28 05:54:03;;;;;;;11.02;10.20;;;;;;;;;;4922654;29;20491;-69
2021/12/28 05:56:28;;;;;;;12.93;11.27;;;;;;;;;;4916967;29;20083;-69
2021/12/28 05:58:54;;;;;;;12.77;10.73;;;;;;;;;;4918890;29;20060;-69
2021/12/28 06:01:19;;;;;;;10.55;9.77;;;;;;;;;;4912992;29;20458;-69
2021/12/28 06:03:45;;;;;;;11.82;10.65;;;;;;;;;;4915077;29;20080;-69
2021/12/28 06:06:11;;;;;;;11.57;10.40;;;;;;;;;;4917273;29;20087;-69
2021/12/28 06:08:36;;;;;;;11.10;10.25;;;;;;;;;;4917731;29;20047;-69
2021/12/28 06:11:05;;;;;;;11.20;10.23;;;;;;;;;;4926848;29;20063;-68
2021/12/28 06:13:31;;;;;;;11.38;10.35;;;;;;;;;;4913428;29;20111;-68
2021/12/28 06:15:57;;;;;;;10.68;9.88;;;;;;;;;;4921960;29;20035;-68
2021/12/28 06:18:22;;;;;;;11.20;10.50;;;;;;;;;;4918931;29;20107;-68
2021/12/28 06:20:48;;;;;;;10.90;9.95;;;;;;;;;;4921401;29;20039;-68
2021/12/28 06:23:14;;;;;;;11.55;10.75;;;;;;;;;;4923240;29;20067;-68
2021/12/28 06:25:40;;;;;;;10.57;9.98;;;;;;;;;;4937702;29;20039;-68
2021/12/28 06:28:06;;;;;;;10.85;10.15;;;;;;;;;;4914792;29;20035;-68
2021/12/28 06:30:33;;;;;;;10.98;10.20;;;;;;;;;;4913020;29;20099;-68
2021/12/28 06:32:59;;;;;;;11.60;10.80;;;;;;;;;;4918574;29;20158;-70
2021/12/28 06:35:25;;;;;;;11.90;11.20;;;;;;;;;;4916234;29;20036;-69
2021/12/28 06:37:51;;;;;;;11.52;10.82;;;;;;;;;;4923030;29;20091;-68
2021/12/28 06:40:16;;;;;;;10.73;10.13;;;;;;;;;;4918463;29;20040;-68
2021/12/28 06:42:42;;;;;;;11.52;10.65;;;;;;;;;;4914562;29;20059;-69
2021/12/28 06:45:08;;;;;;;12.60;11.57;;;;;;;;;;4915929;29;20512;-68
2021/12/28 06:47:34;;;;;;;11.23;10.52;;;;;;;;;;4910081;29;20036;-69
2021/12/28 06:49:59;;;;;;;10.88;10.18;;;;;;;;;;4918783;29;20039;-70
2021/12/28 06:52:25;;;;;;;11.73;10.93;;;;;;;;;;4920608;29;20090;-69
2021/12/28 06:54:51;;;;;;;11.35;10.65;;;;;;;;;;4916420;29;20048;-68
2021/12/28 06:57:16;;;;;;;11.70;10.68;;;;;;;;;;4916010;29;20046;-68
2021/12/28 06:59:44;;;;;;;11.15;10.25;;;;;;;;;;4912693;29;20087;-68
2021/12/28 07:02:14;;;;;;;11.32;10.52;;;;;;;;;;4918485;29;20035;-67
2021/12/28 07:04:41;;;;;;;11.68;10.98;;;;;;;;;;4912121;29;20028;-67
2021/12/28 07:07:08;;;;;;;12.23;11.35;;;;;;;;;;4919039;29;20288;-67
2021/12/28 07:09:34;;;;;;;11.93;11.02;;;;;;;;;;4914136;29;20039;-68
2021/12/28 07:12:00;;;;;;;10.90;10.02;;;;;;;;;;4912225;29;20044;-67
2021/12/28 07:14:28;;;;;;;11.05;9.93;;;;;;;;;;4918593;29;20493;-68
2021/12/28 07:16:55;;;;;;;10.48;9.73;;;;;;;;;;4922082;29;20027;-68
2021/12/28 07:19:21;;;;;;;11.52;10.73;;;;;;;;;;4922940;29;20495;-68
2021/12/28 07:21:46;;;;;;;11.52;10.57;;;;;;;;;;4939625;29;20031;-67
2021/12/28 07:24:13;;;;;;;11.95;10.82;;;;;;;;;;4922159;29;20107;-67
2021/12/28 07:26:40;;;;;;;11.27;10.48;;;;;;;;;;4920480;29;20127;-67
2021/12/28 07:29:06;;;;;;;11.15;10.35;;;;;;;;;;4911346;29;20514;-67
2021/12/28 07:31:32;;;;;;;11.43;10.50;;;;;;;;;;4925703;29;20040;-69
2021/12/28 07:33:57;;;;;;;11.07;10.10;;;;;;;;;;4921858;29;20036;-66
2021/12/28 07:36:23;;;;;;;11.25;10.45;;;;;;;;;;4917451;29;20040;-66
2021/12/28 07:38:49;;;;;;;11.00;10.15;;;;;;;;;;4921731;29;20051;-68
2021/12/28 07:41:15;;;;;;;12.00;10.98;;;;;;;;;;4914640;29;20484;-66
2021/12/28 07:43:40;;;;;;;11.50;10.80;;;;;;;;;;4909072;29;20051;-68
2021/12/28 07:46:06;;;;;;;11.50;10.77;;;;;;;;;;4916505;29;20404;-66
2021/12/28 07:48:32;;;;;;;11.45;10.68;;;;;;;;;;4912088;29;20032;-69
2021/12/28 07:50:58;;;;;;;11.50;10.63;;;;;;;;;;4911164;29;20504;-67
2021/12/28 07:53:24;;;;;;;11.40;10.70;;;;;;;;;;4916248;29;20044;-67
2021/12/28 07:55:50;;;;;;;11.38;10.68;;;;;;;;;;4916559;29;20471;-67
2021/12/28 07:58:16;;;;;;;11.32;10.63;;;;;;;;;;4912683;29;20111;-67
2021/12/28 08:00:41;;;;;;;11.45;10.75;;;;;;;;;;4909264;29;20047;-67
2021/12/28 08:03:07;;;;;;;12.70;11.70;;;;;;;;;;4910022;29;20104;-67
2021/12/28 08:05:35;;;;;;;11.40;10.60;;;;;;;;;;4910581;29;20046;-67
2021/12/28 08:08:01;;;;;;;11.52;10.75;;;;;;;;;;4930018;29;20040;-67
2021/12/28 08:10:27;;;;;;;10.73;10.13;;;;;;;;;;4919499;29;20083;-67
2021/12/28 08:12:54;;;;;;;10.35;9.75;;;;;;;;;;4917112;29;20087;-67
2021/12/28 08:15:21;;;;;;;10.52;9.82;;;;;;;;;;4926530;29;20042;-67
2021/12/28 08:17:47;;;;;;;10.18;9.57;;;;;;;;;;4912479;29;20480;-67
2021/12/28 08:20:14;;;;;;;10.35;9.65;;;;;;;;;;4909835;29;20589;-67
2021/12/28 08:22:40;;;;;;;9.85;9.25;;;;;;;;;;4914810;29;20064;-68
2021/12/28 08:25:08;;;;;;;10.50;9.77;;;;;;;;;;4910459;29;20094;-67
2021/12/28 08:27:34;;;;;;;10.55;9.95;;;;;;;;;;4906142;29;20044;-67
2021/12/28 08:30:00;;;;;;;10.32;9.73;;;;;;;;;;4910208;29;20206;-68
2021/12/28 08:32:26;;;;;;;9.93;9.43;;;;;;;;;;4913390;29;20123;-67
2021/12/28 08:34:51;;;;;;;9.98;9.38;;;;;;;;;;4916763;29;20353;-67
2021/12/28 08:37:17;;;;;;;9.70;9.20;;;;;;;;;;4921265;29;20028;-67
2021/12/28 08:39:43;;;;;;;10.80;10.15;;;;;;;;;;4918869;29;20478;-67
2021/12/28 08:42:09;;;;;;;11.52;10.73;;;;;;;;;;4914239;29;20056;-67
2021/12/28 08:44:35;;;;;;;11.25;10.55;;;;;;;;;;4914462;29;20111;-67
2021/12/28 08:47:01;;;;;;;10.82;10.23;;;;;;;;;;4946198;28;20043;-67
2021/12/28 08:49:27;;;;;;;11.25;10.55;;;;;;;;;;4916730;29;20395;-67
2021/12/28 08:51:54;;;;;;;11.68;10.98;;;;;;;;;;4933229;29;20036;-67
2021/12/28 08:54:20;;;;;;;11.35;10.75;;;;;;;;;;4919065;29;20040;-67
2021/12/28 08:56:46;;;;;;;11.20;10.60;;;;;;;;;;4913742;29;20040;-67
2021/12/28 08:59:13;;;;;;;11.25;10.55;;;;;;;;;;4928017;29;20495;-68
2021/12/28 09:01:40;;;;;;;10.95;10.25;;;;;;;;;;4917195;29;20027;-68
2021/12/28 09:04:06;;;;;;;11.15;10.48;;;;;;;;;;4932984;29;20065;-68
2021/12/28 09:06:32;;;;;;;11.30;10.60;;;;;;;;;;4914083;29;20040;-68
2021/12/28 09:08:58;;;;;;;11.40;10.70;;;;;;;;;;4912001;29;20044;-68
2021/12/28 09:11:24;;;;;;;10.57;9.98;;;;;;;;;;4913511;29;20036;-68
2021/12/28 09:13:50;;;;;;;12.10;11.02;;;;;;;;;;4915977;29;20305;-67
2021/12/28 09:16:16;;;;;;;11.32;10.43;;;;;;;;;;4912241;29;20040;-68
2021/12/28 09:18:42;;;;;;;11.18;10.48;;;;;;;;;;4916940;29;20095;-67
2021/12/28 09:21:08;;;;;;;11.60;10.90;;;;;;;;;;4912049;29;20039;-67
2021/12/28 09:23:34;;;;;;;11.30;10.50;;;;;;;;;;4913807;29;20031;-67
2021/12/28 09:26:00;;;;;;;10.73;10.13;;;;;;;;;;4911411;29;20071;-67
2021/12/28 09:28:25;;;;;;;10.70;10.00;;;;;;;;;;4912973;29;20032;-68
2021/12/28 09:30:51;;;;;;;11.02;10.43;;;;;;;;;;4912348;29;20043;-67
2021/12/28 09:33:18;;;;;;;10.93;10.32;;;;;;;;;;4920827;29;20062;-68
2021/12/28 09:35:44;;;;;;;11.70;11.00;;;;;;;;;;4919007;29;20043;-68
2021/12/28 09:38:10;;;;;;;11.35;10.75;;;;;;;;;;4938455;29;20035;-67
2021/12/28 09:40:37;;;;;;;11.02;10.43;;;;;;;;;;4921036;29;20105;-68
2021/12/28 09:43:07;;;;;;;10.75;10.15;;;;;;;;;;4926736;29;20399;-68
2021/12/28 09:45:33;;;;;;;10.50;9.90;;;;;;;;;;4918126;29;20044;-68
2021/12/28 09:48:00;;;;;;;10.73;10.13;;;;;;;;;;4919385;29;20483;-67
2021/12/28 09:50:27;;;;;;;11.15;10.52;;;;;;;;;;4917496;29;20044;-67
2021/12/28 09:52:53;;;;;;;10.88;10.25;;;;;;;;;;4917146;29;20047;-68
2021/12/28 09:55:22;;;;;;;11.13;10.43;;;;;;;;;;4918248;29;20036;-67
2021/12/28 09:57:49;;;;;;;11.35;10.65;;;;;;;;;;4913598;29;20402;-68
2021/12/28 10:00:17;;;;;;;11.02;10.23;;;;;;;;;;4911935;29;20047;-68
2021/12/28 10:02:43;;;;;;;10.73;10.13;;;;;;;;;;4911797;29;20036;-68
2021/12/28 10:05:16;;;;;;;11.10;10.40;;;;;;;;;;4910549;29;20646;-68
2021/12/28 10:07:57;;;;;;;10.93;10.32;;;;;;;;;;4917100;29;20407;-68
2021/12/28 10:10:29;;;;;;;11.27;10.68;;;;;;;;;;4913347;29;20500;-68
2021/12/28 10:12:58;;;;;;;11.10;10.43;;;;;;;;;;4913348;29;20046;-68
2021/12/28 10:15:29;;;;;;;10.82;10.23;;;;;;;;;;4910192;29;20043;-68
2021/12/28 10:17:58;;;;;;;11.15;10.45;;;;;;;;;;4940087;29;20035;-68
2021/12/28 10:20:29;;;;;;;11.70;11.00;;;;;;;;;;4925737;29;20515;-68
2021/12/28 10:23:10;;;;;;;11.20;10.50;;;;;;;;;;4921190;29;20032;-68
2021/12/28 10:25:47;;;;;;;11.10;10.40;;;;;;;;;;4917290;29;20538;-68
2021/12/28 10:28:19;;;;;;;10.88;10.18;;;;;;;;;;4923737;29;20056;-68
2021/12/28 10:31:06;;;;;;;10.82;10.13;;;;;;;;;;4910501;29;20096;-68
2021/12/28 10:33:36;;;;;;;10.75;10.10;;;;;;;;;;4930945;29;20115;-68
2021/12/28 10:36:06;;;;;;;10.63;10.02;;;;;;;;;;4912475;29;20040;-68
2021/12/28 10:38:35;;;;;;;11.82;11.13;;;;;;;;;;4916805;29;20043;-68
2021/12/28 10:41:09;;;;;;;11.70;10.90;;;;;;;;;;4914396;29;20036;-69
2021/12/28 10:43:38;;;;;;;11.80;11.10;;;;;;;;;;4929955;29;20043;-68
2021/12/28 10:46:10;;;;;;;11.40;10.70;;;;;;;;;;4925499;29;20047;-67
2021/12/28 10:48:42;;;;;;;12.50;11.80;;;;;;;;;;4910637;29;20500;-68
2021/12/28 10:51:14;;;;;;;11.63;10.93;;;;;;;;;;4912113;29;20048;-67
2021/12/28 10:56:26;;;;;;;11.80;11.10;;;;;;;;;;4920821;29;20043;-67
2021/12/28 10:58:52;;;;;;;11.60;10.85;;;;;;;;;;4916120;29;20035;-68
2021/12/28 11:01:25;;;;;;;11.30;10.60;;;;;;;;;;4949239;23;20043;-69
2021/12/28 11:03:56;;;;;;;11.85;11.15;;;;;;;;;;4951288;28;20027;-69
2021/12/28 11:06:25;;;;;;;11.70;11.00;;;;;;;;;;4951860;28;20066;-68
2021/12/28 11:08:53;;;;;;;12.00;11.30;;;;;;;;;;4947935;28;20526;-68
2021/12/28 11:11:21;;;;;;;11.85;11.25;;;;;;;;;;4950763;28;20438;-69
2021/12/28 11:13:48;;;;;;;11.73;11.05;;;;;;;;;;4933739;29;20726;-68
2021/12/28 11:16:18;;;;;;;12.05;11.35;;;;;;;;;;4930671;29;20031;-69
2021/12/28 11:18:47;;;;;;;11.45;10.63;;;;;;;;;;4931823;29;20032;-68
2021/12/28 11:21:49;;;;;;;11.00;10.30;;;;;;;;;;4935478;28;20070;-68
2021/12/28 11:24:15;;;;;;;10.90;10.30;;;;;;;;;;4930268;29;20063;-69
2021/12/28 11:26:46;;;;;;;11.27;10.68;;;;;;;;;;4930502;29;20031;-68
2021/12/28 11:29:20;;;;;;;11.27;10.68;;;;;;;;;;4930271;29;20036;-68
2021/12/28 11:31:57;;;;;;;11.35;10.55;;;;;;;;;;4929317;29;20654;-68
2021/12/28 11:34:29;;;;;;;11.00;10.40;;;;;;;;;;4933148;29;20039;-68
2021/12/28 11:36:58;;;;;;;11.32;10.60;;;;;;;;;;4933449;29;20035;-68
2021/12/28 11:39:30;;;;;;;11.20;10.60;;;;;;;;;;4929944;29;20043;-68
2021/12/28 11:41:58;;;;;;;11.50;10.43;;;;;;;;;;4927842;29;20038;-69
2021/12/28 11:44:25;;;;;;;11.07;10.48;;;;;;;;;;4938838;29;20035;-69
2021/12/28 11:46:53;;;;;;;11.55;10.50;;;;;;;;;;4928907;29;20047;-69
2021/12/28 11:49:24;;;;;;;11.50;10.73;;;;;;;;;;4929135;29;20043;-67
2021/12/28 11:51:51;;;;;;;11.68;10.98;;;;;;;;;;4930213;29;20299;-69
2021/12/28 11:54:17;;;;;;;11.25;10.55;;;;;;;;;;4936371;29;20077;-69
2021/12/28 11:56:47;;;;;;;11.20;10.50;;;;;;;;;;4931300;29;20103;-69
2021/12/28 11:59:18;;;;;;;11.23;10.52;;;;;;;;;;4943063;28;20047;-68
2021/12/28 12:01:46;;;;;;;9.77;9.27;;;;;;;;;;4934409;29;20055;-69
2021/12/28 12:04:27;;;;;;;9.50;9.00;;;;;;;;;;4929105;29;20515;-69
2021/12/28 12:07:14;;;;;;;9.82;9.32;;;;;;;;;;4929923;29;20450;-69
2021/12/28 12:09:48;;;;;;;10.80;10.05;;;;;;;;;;4936923;29;20039;-68
2021/12/28 12:12:16;;;;;;;10.52;9.93;;;;;;;;;;4929197;29;20062;-69
2021/12/28 12:15:08;;;;;;;10.52;9.93;;;;;;;;;;4929984;29;20096;-69
2021/12/28 12:17:34;;;;;;;10.25;9.65;;;;;;;;;;4942372;29;20047;-68
2021/12/28 12:20:03;;;;;;;9.50;9.00;;;;;;;;;;4932882;29;20035;-69
2021/12/28 12:22:31;;;;;;;10.65;10.05;;;;;;;;;;4933869;29;20043;-69
2021/12/28 12:25:10;;;;;;;10.15;9.63;;;;;;;;;;4936793;29;20394;-69
2021/12/28 12:27:56;;;;;;;10.23;9.63;;;;;;;;;;4941876;29;20134;-68
2021/12/28 12:30:47;;;;;;;11.10;10.25;;;;;;;;;;4932259;29;20063;-69
2021/12/28 12:33:15;;;;;;;10.82;10.23;;;;;;;;;;4932017;29;20036;-70
2021/12/28 12:35:58;;;;;;;10.57;9.82;;;;;;;;;;4945242;29;20038;-69
2021/12/28 12:38:27;;;;;;;9.95;9.35;;;;;;;;;;4932197;29;20044;-69
2021/12/28 12:41:01;;;;;;;10.38;9.77;;;;;;;;;;4932416;29;20044;-68
2021/12/28 12:43:39;;;;;;;10.63;10.02;;;;;;;;;;4930717;29;20069;-69
2021/12/28 12:46:37;;;;;;;10.43;9.73;;;;;;;;;;4931775;29;20044;-68
2021/12/28 12:49:13;;;;;;;10.43;9.82;;;;;;;;;;4932307;29;20442;-68
2021/12/28 12:51:57;;;;;;;10.25;9.65;;;;;;;;;;4930957;29;20041;-69
2021/12/28 12:54:26;;;;;;;10.98;10.20;;;;;;;;;;4937034;29;20435;-69
2021/12/28 12:56:54;;;;;;;10.13;9.48;;;;;;;;;;4929133;29;20038;-69
2021/12/28 12:59:25;;;;;;;10.55;9.85;;;;;;;;;;4933014;29;20105;-69
2021/12/28 13:01:50;;;;;;;10.48;9.77;;;;;;;;;;4931329;29;20047;-69
2021/12/28 13:04:25;;;;;;;10.85;10.02;;;;;;;;;;4930447;29;20036;-68
2021/12/28 13:06:58;;;;;;;10.52;9.93;;;;;;;;;;4939378;29;20031;-68
2021/12/28 13:09:24;;;;;;;10.38;9.70;;;;;;;;;;4930410;29;20035;-68
2021/12/28 13:11:49;;;;;;;9.88;9.27;;;;;;;;;;4936352;29;20047;-69
2021/12/28 13:14:15;;;;;;;9.43;8.93;;;;;;;;;;4932971;29;20593;-69
2021/12/28 13:16:41;;;;;;;9.75;9.25;;;;;;;;;;4931706;29;20505;-69
2021/12/28 13:19:15;;;;;;;10.18;9.48;;;;;;;;;;4930388;29;20246;-68
2021/12/28 13:22:04;;;;;;;9.55;9.05;;;;;;;;;;4931102;29;20364;-68
2021/12/28 13:24:31;;;;;;;10.27;9.68;;;;;;;;;;4931544;29;20068;-68
2021/12/28 13:27:01;;;;;;;10.30;9.40;;;;;;;;;;4930922;29;20143;-68
2021/12/28 13:29:27;;;;;;;;;;;;;;;;;;4932680;29;20035;-68
2021/12/28 13:32:10;;;;;;;10.35;9.75;;;;;;;;;;4930752;29;19918;-69
2021/12/28 13:35:06;;;;;;;9.60;9.10;;;;;;;;;;4931627;29;20400;-70
2021/12/28 13:37:49;;;;;;;10.07;9.48;;;;;;;;;;4927180;29;20406;-69
2021/12/28 13:40:41;;;;;;;9.80;9.27;;;;;;;;;;4931048;29;20031;-68
2021/12/28 13:43:21;;;;;;;9.93;9.32;;;;;;;;;;4930575;29;20768;-68
2021/12/28 13:45:55;;;;;;;10.23;9.52;;;;;;;;;;4926608;29;20045;-68
2021/12/28 13:48:31;;;;;;;9.77;9.18;;;;;;;;;;4931115;29;20032;-69
2021/12/28 13:51:04;;;;;;;10.15;9.55;;;;;;;;;;4931581;29;20051;-68
2021/12/28 13:53:35;;;;;;;10.60;9.73;;;;;;;;;;4927837;29;20047;-69
2021/12/28 13:56:10;;;;;;;9.98;9.38;;;;;;;;;;4933849;29;20035;-69
2021/12/28 13:58:40;;;;;;;9.45;8.80;;;;;;;;;;4929870;29;20328;-69
2021/12/28 14:01:05;;;;;;;;;;;;;;;;;;4929218;29;20035;-69
2021/12/28 14:03:31;;;;;;;9.05;8.45;;;;;;;;;;4942072;29;20007;-68
2021/12/28 14:05:58;;;;;;;9.70;9.10;;;;;;;;;;4929165;29;20243;-69
2021/12/28 14:08:24;;;;;;;9.18;8.65;;;;;;;;;;4930346;29;20122;-70
2021/12/28 14:10:53;;;;;;;9.43;8.68;;;;;;;;;;4929452;29;20128;-69
2021/12/28 14:13:20;;;;;;;9.52;8.90;;;;;;;;;;4920822;29;20459;-69
2021/12/28 14:16:03;;;;;;;9.27;8.68;;;;;;;;;;4928737;29;20130;-69
2021/12/28 14:18:44;;;;;;;9.20;8.60;;;;;;;;;;4929193;29;20047;-69
2021/12/28 14:21:28;;;;;;;9.45;8.93;;;;;;;;;;4927602;29;20027;-69
2021/12/28 14:23:59;;;;;;;9.10;8.50;;;;;;;;;;4935081;29;20039;-69
2021/12/28 14:26:28;;;;;;;9.40;8.80;;;;;;;;;;4929971;29;20074;-68
2021/12/28 14:29:00;;;;;;;8.40;7.85;;;;;;;;;;4930303;29;20027;-69
2021/12/28 14:31:41;;;;;;;10.00;9.20;;;;;;;;;;4921406;29;20044;-69
2021/12/28 14:34:09;;;;;;;10.00;9.30;;;;;;;;;;4929048;29;20446;-69
2021/12/28 14:36:41;;;;;;;9.40;8.80;;;;;;;;;;4925718;29;20086;-69
2021/12/28 14:39:15;;;;;;;10.15;9.45;;;;;;;;;;4923261;29;20035;-69
2021/12/28 14:41:43;;;;;;;9.02;8.43;;;;;;;;;;4926245;28;20081;-69